| time (UTC) | temp F | wind direction | speed knots | gust knots | rain 1hr in | rain 24hr in | rain mn in | humidity % | barometer mb |
| 20260504205114 | 61 | 11 | 9.6 | 19.1 | 0.00 | 0.00 | 0.00 | 39 | 1008.5 |
| 20260504204644 | 61 | 44 | 13.0 | 19.1 | 0.00 | 0.00 | 0.00 | 39 | 1008.5 |
| 20260504204139 | 61 | 28 | 13.0 | 19.1 | 0.00 | 0.00 | 0.00 | 39 | 1008.5 |
| 20260504203739 | 61 | 15 | 9.6 | 20.0 | 0.00 | 0.00 | 0.00 | 40 | 1008.8 |
| 20260504203313 | 60 | 12 | 12.2 | 24.3 | 0.00 | 0.00 | 0.00 | 41 | 1008.8 |
| 20260504202814 | 61 | 34 | 11.3 | 24.3 | 0.00 | 0.00 | 0.00 | 39 | 1008.8 |
| 20260504202314 | 61 | 40 | 11.3 | 21.7 | 0.00 | 0.00 | 0.00 | 40 | 1008.8 |
| 20260504201841 | 62 | 37 | 12.2 | 20.0 | 0.00 | 0.00 | 0.00 | 39 | 1008.5 |
| 20260504201411 | 61 | 30 | 13.9 | 20.9 | 0.00 | 0.00 | 0.00 | 39 | 1008.5 |
| 20260504200939 | 61 | 26 | 11.3 | 20.9 | 0.00 | 0.00 | 0.00 | 39 | 1008.8 |
| 20260504200513 | 62 | 17 | 19.1 | 20.9 | 0.00 | 0.00 | 0.00 | 38 | 1008.5 |
| 20260504200042 | 61 | 5 | 18.2 | 18.2 | 0.00 | 0.00 | 0.00 | 40 | 1008.5 |
| 20260504195615 | 61 | 40 | 12.2 | 16.5 | 0.00 | 0.00 | 0.00 | 39 | 1008.5 |
| 20260504195137 | 61 | 360 | 7.8 | 17.4 | 0.00 | 0.00 | 0.00 | 38 | 1008.5 |
| 20260504194739 | 61 | 355 | 14.8 | 17.4 | 0.00 | 0.00 | 0.00 | 38 | 1008.5 |
| 20260504194242 | 61 | 35 | 13.0 | 17.4 | 0.00 | 0.00 | 0.00 | 39 | 1008.5 |
| 20260504193812 | 61 | 320 | 7.0 | 17.4 | 0.00 | 0.00 | 0.00 | 39 | 1008.5 |
| 20260504193413 | 60 | 22 | 11.3 | 16.5 | 0.00 | 0.00 | 0.00 | 38 | 1008.5 |
| 20260504192912 | 61 | 5 | 10.4 | 21.7 | 0.00 | 0.00 | 0.00 | 38 | 1008.5 |
| 20260504192415 | 62 | 5 | 13.9 | 21.7 | 0.00 | 0.00 | 0.00 | 38 | 1008.5 |
| 20260504191942 | 63 | 33 | 14.8 | 22.6 | 0.00 | 0.00 | 0.00 | 37 | 1008.5 |
| 20260504191443 | 62 | 57 | 13.9 | 26.1 | 0.00 | 0.00 | 0.00 | 38 | 1008.5 |
| 20260504191044 | 63 | 16 | 13.0 | 26.1 | 0.00 | 0.00 | 0.00 | 38 | 1008.1 |
| 20260504190613 | 63 | 59 | 13.0 | 21.7 | 0.00 | 0.00 | 0.00 | 39 | 1008.5 |
| 20260504190138 | 62 | 42 | 10.4 | 21.7 | 0.00 | 0.00 | 0.00 | 39 | 1008.5 |
| 20260504185713 | 62 | 50 | 14.8 | 21.7 | 0.00 | 0.00 | 0.00 | 39 | 1008.5 |
| 20260504185243 | 62 | 26 | 15.6 | 18.2 | 0.00 | 0.00 | 0.00 | 39 | 1008.5 |
| 20260504184814 | 62 | 51 | 13.0 | 18.2 | 0.00 | 0.00 | 0.00 | 38 | 1008.5 |
| 20260504184338 | 62 | 26 | 13.9 | 20.0 | 0.00 | 0.00 | 0.00 | 39 | 1008.5 |
| 20260504183914 | 62 | 69 | 10.4 | 20.0 | 0.00 | 0.00 | 0.00 | 39 | 1008.5 |
| 20260504183439 | 62 | 43 | 13.9 | 19.1 | 0.00 | 0.00 | 0.00 | 41 | 1008.5 |
| 20260504183015 | 61 | 41 | 18.2 | 20.9 | 0.00 | 0.00 | 0.00 | 41 | 1008.1 |
| 20260504182538 | 61 | 22 | 10.4 | 20.9 | 0.00 | 0.00 | 0.00 | 40 | 1008.5 |
| 20260504182112 | 61 | 44 | 15.6 | 20.0 | 0.00 | 0.00 | 0.00 | 40 | 1008.5 |
| 20260504181642 | 61 | 23 | 10.4 | 20.9 | 0.00 | 0.00 | 0.00 | 41 | 1008.5 |
| 20260504181214 | 61 | 29 | 12.2 | 20.9 | 0.00 | 0.00 | 0.00 | 40 | 1008.1 |
| 20260504180744 | 61 | 51 | 13.9 | 20.9 | 0.00 | 0.00 | 0.00 | 41 | 1008.1 |
| 20260504180314 | 60 | 49 | 14.8 | 23.5 | 0.00 | 0.00 | 0.00 | 41 | 1008.1 |
| 20260504175812 | 61 | 51 | 19.1 | 23.5 | 0.00 | 0.00 | 0.00 | 41 | 1008.1 |
| 20260504175312 | 61 | 54 | 19.1 | 23.5 | 0.00 | 0.00 | 0.00 | 40 | 1008.1 |
| 20260504174838 | 60 | 50 | 14.8 | 21.7 | 0.00 | 0.00 | 0.00 | 40 | 1008.1 |
| 20260504174339 | 60 | 47 | 20.0 | 23.5 | 0.00 | 0.00 | 0.00 | 40 | 1008.1 |
| 20260504173913 | 60 | 34 | 18.2 | 23.5 | 0.00 | 0.00 | 0.00 | 40 | 1008.1 |
| 20260504173411 | 60 | 35 | 19.1 | 25.2 | 0.00 | 0.00 | 0.00 | 41 | 1008.1 |
| 20260504172911 | 59 | 63 | 19.1 | 25.2 | 0.00 | 0.00 | 0.00 | 40 | 1008.1 |
| 20260504172438 | 60 | 46 | 18.2 | 23.5 | 0.00 | 0.00 | 0.00 | 41 | 1008.1 |
| 20260504172027 | 60 | 42 | 18.2 | 25.2 | 0.00 | 0.00 | 0.00 | 39 | 1008.1 |
| 20260504171541 | 60 | 19 | 18.2 | 25.2 | 0.00 | 0.00 | 0.00 | 39 | 1007.8 |
| 20260504171025 | 60 | 30 | 16.5 | 24.3 | 0.00 | 0.00 | 0.00 | 39 | 1007.8 |
| 20260504170538 | 61 | 38 | 16.5 | 24.3 | 0.00 | 0.00 | 0.00 | 39 | 1007.5 |
| 20260504170129 | 60 | 38 | 13.9 | 22.6 | 0.00 | 0.00 | 0.00 | 39 | 1007.8 |
| 20260504151026 | 59 | 30 | 15.6 | 21.7 | 0.00 | 0.00 | 0.00 | 48 | 1007.1 |
| 20260504150535 | 58 | 27 | 13.9 | 21.7 | 0.00 | 0.00 | 0.00 | 47 | 1006.8 |
| 20260504150125 | 60 | 30 | 19.1 | 21.7 | 0.00 | 0.00 | 0.00 | 43 | 1006.8 |
| 20260504141125 | 61 | 243 | 4.3 | 9.6 | 0.00 | 0.00 | 0.00 | 42 | 1005.1 |
| 20260504140724 | 61 | 254 | 6.1 | 9.6 | 0.00 | 0.00 | 0.00 | 42 | 1005.1 |
| 20260504140239 | 61 | 240 | 4.3 | 8.7 | 0.00 | 0.00 | 0.00 | 43 | 1005.1 |
| 20260504130722 | 50 | 291 | 4.3 | 7.0 | 0.00 | 0.00 | 0.00 | 62 | 1005.4 |
| 20260504130243 | 48 | 253 | 4.3 | 7.8 | 0.00 | 0.00 | 0.00 | 63 | 1005.4 |
| 20260504120221 | 43 | 257 | 3.5 | 6.1 | 0.00 | 0.00 | 0.00 | 70 | 1005.4 |
| 20260504110519 | 43 | 273 | 2.6 | 7.8 | 0.00 | 0.00 | 0.00 | 75 | 1005.4 |
| 20260504100543 | 44 | 262 | 5.2 | 7.8 | 0.00 | 0.00 | 0.00 | 76 | 1005.8 |
| 20260504100117 | 44 | 246 | 2.6 | 8.7 | 0.00 | 0.00 | 0.00 | 76 | 1005.8 |
| 20260504081715 | 41 | 266 | 2.6 | 5.2 | 0.00 | 0.00 | 0.00 | 81 | 1006.4 |
| 20260504081216 | 41 | 275 | 3.5 | 6.1 | 0.00 | 0.00 | 0.00 | 81 | 1006.4 |
| 20260504080743 | 41 | 273 | 3.5 | 6.1 | 0.00 | 0.00 | 0.00 | 82 | 1006.4 |
| 20260504080341 | 41 | 285 | 3.5 | 6.1 | 0.00 | 0.00 | 0.00 | 82 | 1006.4 |
| 20260504070312 | 41 | 284 | 1.7 | 3.5 | 0.00 | 0.00 | 0.00 | 83 | 1006.8 |
| 20260504050340 | 46 | 246 | 2.6 | 7.0 | 0.00 | 0.00 | 0.00 | 79 | 1007.5 |
| 20260504045839 | 46 | 202 | 3.5 | 5.2 | 0.00 | 0.00 | 0.00 | 78 | 1007.5 |
| 20260504045412 | 45 | 201 | 1.7 | 5.2 | 0.00 | 0.00 | 0.00 | 80 | 1007.8 |
| 20260504045014 | 45 | 194 | 4.3 | 5.2 | 0.00 | 0.00 | 0.00 | 80 | 1007.8 |
| 20260504044515 | 45 | 161 | 4.3 | 4.3 | 0.00 | 0.00 | 0.00 | 81 | 1007.8 |
| 20260504044042 | 44 | 159 | 1.7 | 2.6 | 0.00 | 0.00 | 0.00 | 79 | 1007.8 |
| 20260504043641 | 44 | 159 | 1.7 | 2.6 | 0.00 | 0.00 | 0.00 | 76 | 1007.8 |
| 20260504043210 | 44 | 159 | 0.9 | 4.3 | 0.00 | 0.00 | 0.00 | 75 | 1007.8 |
| 20260504042710 | 44 | 159 | 3.5 | 4.3 | 0.00 | 0.00 | 0.00 | 76 | 1007.8 |
| 20260504042213 | 45 | 159 | 1.7 | 1.7 | 0.00 | 0.00 | 0.00 | 76 | 1007.8 |
| 20260504041736 | 45 | 159 | 0.9 | 1.7 | 0.00 | 0.00 | 0.00 | 77 | 1007.8 |
| 20260504041239 | 45 | 159 | 0.0 | 1.7 | 0.00 | 0.00 | 0.00 | 74 | 1008.1 |
| 20260504040839 | 45 | 159 | 0.9 | 1.7 | 0.00 | 0.00 | 0.00 | 74 | 1008.1 |
| 20260504040410 | 46 | 159 | 0.9 | 1.7 | 0.00 | 0.00 | 0.00 | 72 | 1008.1 |
| 20260504035913 | 46 | 159 | 0.0 | 2.6 | 0.00 | 0.00 | 0.00 | 72 | 1008.1 |
| 20260504035516 | 47 | 159 | 0.9 | 2.6 | 0.00 | 0.00 | 0.00 | 72 | 1008.1 |
| 20260504035037 | 47 | 159 | 1.7 | 3.5 | 0.00 | 0.00 | 0.00 | 72 | 1008.1 |
| 20260504034612 | 47 | 159 | 1.7 | 3.5 | 0.00 | 0.00 | 0.00 | 70 | 1008.1 |
| 20260504034136 | 48 | 159 | 0.9 | 1.7 | 0.00 | 0.00 | 0.00 | 70 | 1008.1 |
| 20260504033714 | 48 | 159 | 0.0 | 1.7 | 0.00 | 0.00 | 0.00 | 70 | 1008.1 |
| 20260504033311 | 49 | 159 | 1.7 | 1.7 | 0.00 | 0.00 | 0.00 | 71 | 1008.1 |
| 20260504032811 | 50 | 159 | 0.9 | 1.7 | 0.00 | 0.00 | 0.00 | 71 | 1008.1 |
| 20260504032311 | 50 | 159 | 0.0 | 1.7 | 0.00 | 0.00 | 0.00 | 71 | 1008.1 |
| 20260504031747 | 50 | 159 | 0.0 | 4.3 | 0.00 | 0.00 | 0.00 | 71 | 1008.1 |
| 20260504031242 | 50 | 159 | 3.5 | 4.3 | 0.00 | 0.00 | 0.00 | 72 | 1008.1 |
| 20260504030813 | 50 | 165 | 3.5 | 5.2 | 0.00 | 0.00 | 0.00 | 71 | 1008.1 |
| 20260504030316 | 50 | 165 | 0.0 | 5.2 | 0.00 | 0.00 | 0.00 | 69 | 1008.5 |
| 20260504025811 | 51 | 165 | 0.0 | 2.6 | 0.00 | 0.00 | 0.00 | 67 | 1008.1 |
| 20260504025341 | 52 | 166 | 2.6 | 3.5 | 0.00 | 0.00 | 0.00 | 66 | 1008.1 |
| 20260504024837 | 52 | 166 | 0.0 | 2.6 | 0.00 | 0.00 | 0.00 | 66 | 1008.5 |
| 20260504024339 | 53 | 166 | 0.0 | 2.6 | 0.00 | 0.00 | 0.00 | 65 | 1008.5 |
| 20260504023912 | 53 | 170 | 1.7 | 4.3 | 0.00 | 0.00 | 0.00 | 65 | 1008.1 |
| 20260504023514 | 53 | 170 | 0.9 | 4.3 | 0.00 | 0.00 | 0.00 | 63 | 1008.5 |
| 20260504023012 | 54 | 170 | 4.3 | 5.2 | 0.00 | 0.00 | 0.00 | 64 | 1008.1 |
| 20260504022515 | 54 | 26 | 0.9 | 8.7 | 0.00 | 0.00 | 0.00 | 64 | 1008.1 |
| 20260504022041 | 55 | 26 | 5.2 | 10.4 | 0.00 | 0.00 | 0.00 | 63 | 1008.1 |
| 20260504021614 | 55 | 12 | 7.0 | 10.4 | 0.00 | 0.00 | 0.00 | 61 | 1007.8 |
| 20260504021139 | 56 | 13 | 7.0 | 8.7 | 0.00 | 0.00 | 0.00 | 59 | 1007.8 |
| 20260504020711 | 56 | 15 | 2.6 | 7.0 | 0.00 | 0.00 | 0.00 | 57 | 1007.5 |
| 20260504020238 | 57 | 9 | 2.6 | 7.0 | 0.00 | 0.00 | 0.00 | 56 | 1007.5 |
| 20260504015818 | 57 | 33 | 5.2 | 7.8 | 0.00 | 0.00 | 0.00 | 56 | 1007.5 |
| 20260504015339 | 58 | 40 | 4.3 | 7.8 | 0.00 | 0.00 | 0.00 | 54 | 1007.5 |
| 20260504014916 | 59 | 32 | 5.2 | 7.8 | 0.00 | 0.00 | 0.00 | 53 | 1007.5 |
| 20260504014439 | 60 | 38 | 4.3 | 4.3 | 0.00 | 0.00 | 0.00 | 53 | 1007.8 |
| 20260504014016 | 60 | 346 | 0.9 | 2.6 | 0.00 | 0.00 | 0.00 | 51 | 1007.8 |
| 20260504013517 | 60 | 342 | 0.0 | 4.3 | 0.00 | 0.00 | 0.00 | 51 | 1007.8 |
| 20260504013018 | 60 | 338 | 0.0 | 5.2 | 0.00 | 0.00 | 0.00 | 51 | 1007.8 |
| 20260504012617 | 60 | 314 | 4.3 | 8.7 | 0.00 | 0.00 | 0.00 | 52 | 1008.1 |
| 20260504012137 | 59 | 11 | 2.6 | 8.7 | 0.00 | 0.00 | 0.00 | 53 | 1007.8 |
| 20260504011716 | 59 | 20 | 7.0 | 8.7 | 0.00 | 0.00 | 0.00 | 54 | 1007.8 |
| 20260504011215 | 59 | 5 | 5.2 | 9.6 | 0.00 | 0.00 | 0.00 | 55 | 1007.8 |
| 20260504010715 | 59 | 5 | 7.0 | 13.0 | 0.00 | 0.00 | 0.00 | 54 | 1007.8 |
| 20260504010236 | 59 | 19 | 7.0 | 13.0 | 0.00 | 0.00 | 0.00 | 55 | 1007.8 |
| 20260504005817 | 59 | 19 | 7.8 | 13.9 | 0.00 | 0.00 | 0.00 | 54 | 1008.1 |
| 20260504005342 | 59 | 19 | 7.0 | 13.9 | 0.00 | 0.00 | 0.00 | 54 | 1008.1 |
| 20260504004916 | 59 | 355 | 11.3 | 14.8 | 0.00 | 0.00 | 0.00 | 54 | 1008.1 |
| 20260504004439 | 59 | 355 | 9.6 | 16.5 | 0.00 | 0.00 | 0.00 | 53 | 1008.1 |
| 20260504004017 | 59 | 355 | 7.0 | 16.5 | 0.00 | 0.00 | 0.00 | 53 | 1008.1 |
| 20260504003540 | 59 | 5 | 11.3 | 17.4 | 0.00 | 0.00 | 0.00 | 52 | 1008.1 |
| 20260504003116 | 59 | 350 | 12.2 | 17.4 | 0.00 | 0.00 | 0.00 | 52 | 1008.1 |
| 20260504002637 | 60 | 5 | 8.7 | 17.4 | 0.00 | 0.00 | 0.00 | 51 | 1008.1 |
| 20260504002216 | 60 | 355 | 14.8 | 20.9 | 0.00 | 0.00 | 0.00 | 50 | 1007.8 |
| 20260504001715 | 61 | 360 | 10.4 | 20.9 | 0.00 | 0.00 | 0.00 | 49 | 1007.8 |
| 20260504001217 | 61 | 5 | 16.5 | 20.9 | 0.00 | 0.00 | 0.00 | 49 | 1007.5 |
| 20260504000741 | 61 | 5 | 11.3 | 20.9 | 0.00 | 0.00 | 0.00 | 49 | 1007.5 |
| 20260504000338 | 62 | 5 | 20.9 | 20.9 | 0.00 | 0.00 | 0.00 | 48 | 1007.8 |
| 20260503235843 | 62 | 355 | 13.9 | 21.7 | 0.00 | 0.00 | 0.00 | 48 | 1007.8 |
| 20260503235416 | 62 | 336 | 18.2 | 24.3 | 0.00 | 0.00 | 0.00 | 47 | 1007.8 |
| 20260503235014 | 62 | 337 | 16.5 | 24.3 | 0.00 | 0.00 | 0.00 | 47 | 1008.1 |
| 20260503234516 | 62 | 337 | 13.0 | 28.7 | 0.00 | 0.00 | 0.00 | 47 | 1008.1 |
| 20260503234114 | 61 | 334 | 13.9 | 30.4 | 0.00 | 0.00 | 0.00 | 45 | 1008.1 |
| 20260503233636 | 63 | 360 | 15.6 | 30.4 | 0.00 | 0.00 | 0.00 | 42 | 1008.5 |
| 20260503233214 | 66 | 360 | 14.8 | 26.9 | 0.00 | 0.00 | 0.00 | 35 | 1008.5 |
| 20260503232714 | 73 | 317 | 20.0 | 25.2 | 0.00 | 0.00 | 0.00 | 20 | 1008.1 |
| 20260503232216 | 75 | 253 | 4.3 | 10.4 | 0.00 | 0.00 | 0.00 | 20 | 1007.1 |
| 20260503231742 | 75 | 190 | 7.8 | 9.6 | 0.00 | 0.00 | 0.00 | 20 | 1007.1 |
| 20260503231238 | 75 | 214 | 0.9 | 12.2 | 0.00 | 0.00 | 0.00 | 20 | 1007.1 |
| 20260503230837 | 75 | 200 | 5.2 | 12.2 | 0.00 | 0.00 | 0.00 | 20 | 1007.1 |
| 20260503230413 | 74 | 170 | 7.0 | 12.2 | 0.00 | 0.00 | 0.00 | 21 | 1007.1 |
| 20260503225913 | 74 | 193 | 4.3 | 12.2 | 0.00 | 0.00 | 0.00 | 20 | 1007.1 |
| 20260503225513 | 74 | 236 | 2.6 | 7.8 | 0.00 | 0.00 | 0.00 | 20 | 1007.1 |
| 20260503225042 | 74 | 238 | 7.0 | 10.4 | 0.00 | 0.00 | 0.00 | 20 | 1007.1 |
| 20260503224614 | 74 | 222 | 2.6 | 13.9 | 0.00 | 0.00 | 0.00 | 20 | 1007.1 |
| 20260503224142 | 74 | 250 | 7.8 | 13.9 | 0.00 | 0.00 | 0.00 | 20 | 1007.1 |
| 20260503223713 | 75 | 210 | 4.3 | 10.4 | 0.00 | 0.00 | 0.00 | 21 | 1007.5 |
| 20260503223238 | 75 | 204 | 3.5 | 10.4 | 0.00 | 0.00 | 0.00 | 20 | 1007.5 |
| 20260503222812 | 75 | 211 | 4.3 | 11.3 | 0.00 | 0.00 | 0.00 | 21 | 1007.5 |
| 20260503222340 | 75 | 215 | 6.1 | 11.3 | 0.00 | 0.00 | 0.00 | 21 | 1007.5 |
| 20260503221912 | 75 | 233 | 7.0 | 8.7 | 0.00 | 0.00 | 0.00 | 21 | 1007.5 |
| 20260503221436 | 74 | 169 | 1.7 | 11.3 | 0.00 | 0.00 | 0.00 | 21 | 1007.5 |
| 20260503221013 | 74 | 150 | 7.8 | 11.3 | 0.00 | 0.00 | 0.00 | 22 | 1007.8 |
| 20260503220541 | 73 | 146 | 2.6 | 12.2 | 0.00 | 0.00 | 0.00 | 22 | 1007.8 |
| 20260503220111 | 74 | 120 | 2.6 | 10.4 | 0.00 | 0.00 | 0.00 | 22 | 1007.8 |
| 20260503215642 | 74 | 187 | 7.0 | 10.4 | 0.00 | 0.00 | 0.00 | 22 | 1007.8 |
| 20260503215214 | 74 | 240 | 8.7 | 11.3 | 0.00 | 0.00 | 0.00 | 23 | 1008.1 |
| 20260503214739 | 74 | 180 | 4.3 | 12.2 | 0.00 | 0.00 | 0.00 | 23 | 1008.1 |
| 20260503214310 | 74 | 317 | 2.6 | 14.8 | 0.00 | 0.00 | 0.00 | 23 | 1008.5 |
| 20260503213843 | 74 | 182 | 6.1 | 14.8 | 0.00 | 0.00 | 0.00 | 23 | 1008.5 |
| 20260503213412 | 74 | 200 | 7.8 | 10.4 | 0.00 | 0.00 | 0.00 | 24 | 1008.5 |
| 20260503212913 | 74 | 217 | 7.0 | 10.4 | 0.00 | 0.00 | 0.00 | 24 | 1008.5 |
| 20260503212515 | 73 | 197 | 8.7 | 11.3 | 0.00 | 0.00 | 0.00 | 25 | 1008.8 |
| 20260503212037 | 73 | 103 | 2.6 | 7.0 | 0.00 | 0.00 | 0.00 | 25 | 1008.8 |
| 20260503211611 | 73 | 101 | 2.6 | 7.0 | 0.00 | 0.00 | 0.00 | 24 | 1009.1 |
| 20260503211138 | 73 | 177 | 3.5 | 9.6 | 0.00 | 0.00 | 0.00 | 25 | 1009.1 |
| 20260503210712 | 72 | 89 | 2.6 | 10.4 | 0.00 | 0.00 | 0.00 | 25 | 1009.5 |
| 20260503210239 | 73 | 153 | 2.6 | 10.4 | 0.00 | 0.00 | 0.00 | 24 | 1009.5 |
| 20260503205812 | 73 | 232 | 3.5 | 12.2 | 0.00 | 0.00 | 0.00 | 25 | 1009.5 |
| 20260503205336 | 73 | 190 | 8.7 | 12.2 | 0.00 | 0.00 | 0.00 | 25 | 1009.8 |